Time;durP1;ratioP1;P1;durP2;ratioP2;P2;SDS_P1;SDS_P2;PMS_P1;PMS_P2;Temp;Humidity;BMP_temperature;BMP_pressure;BME280_temperature;BME280_humidity;BME280_pressure;Samples;Min_cycle;Max_cycle;Signal;HPM_P1;HPM_P2
2022/12/01 11:15:54;;;;;;;15.57;8.77;;;;;;;6.28;nan;100035.25;6006527;23;20289;-87
2022/12/01 11:18:53;;;;;;;14.65;10.05;;;;;;;6.32;nan;100036.84;6011418;23;20166;-89
2022/12/01 11:21:43;;;;;;;20.50;10.20;;;;;;;6.36;nan;100030.59;5992327;23;20186;-90
2022/12/01 11:24:25;;;;;;;17.58;10.27;;;;;;;6.40;nan;100030.44;5979109;23;20635;-89
2022/12/01 11:26:51;;;;;;;20.38;11.13;;;;;;;6.40;nan;100035.63;5981700;23;20176;-90
2022/12/01 11:29:39;;;;;;;17.87;10.03;;;;;;;6.40;nan;100040.03;5981758;23;20190;-89
2022/12/01 11:32:49;;;;;;;22.33;13.02;;;;;;;6.33;nan;100028.13;5956136;23;20166;-89
2022/12/01 11:35:21;;;;;;;20.73;9.57;;;;;;;6.28;nan;100028.28;5981167;23;20171;-91
2022/12/01 11:37:50;;;;;;;18.37;10.80;;;;;;;6.25;nan;100031.03;5771898;23;5001758;-89
2022/12/01 11:40:24;;;;;;;21.15;10.95;;;;;;;6.27;nan;100026.59;5981439;23;20238;-90
2022/12/01 11:42:52;;;;;;;14.70;10.18;;;;;;;6.29;nan;100026.53;5980811;23;20186;-91
2022/12/01 11:45:23;;;;;;;19.88;11.73;;;;;;;6.30;nan;100026.47;5946542;23;20229;-90
2022/12/01 11:48:24;;;;;;;20.88;11.05;;;;;;;6.27;nan;100018.78;5953116;24;20898;-90
2022/12/01 11:51:37;;;;;;;17.98;11.18;;;;;;;6.27;nan;100010.09;5955268;24;20177;-90
2022/12/01 11:54:12;;;;;;;16.65;11.00;;;;;;;6.30;nan;100015.19;5954980;23;20213;-90
2022/12/01 11:56:38;;;;;;;17.27;10.52;;;;;;;6.30;nan;100016.03;5952754;23;20182;-90
2022/12/01 11:59:31;;;;;;;22.85;11.52;;;;;;;6.34;nan;100008.94;5954991;24;20187;-89
2022/12/01 12:02:08;;;;;;;15.93;10.50;;;;;;;6.36;nan;100004.50;5955531;24;20189;-91
2022/12/01 12:04:50;;;;;;;;;;;;;;;;;;;;;
2022/12/01 12:07:41;;;;;;;17.05;10.93;;;;;;;6.40;nan;100001.72;5959189;24;20175;-90
2022/12/01 12:10:19;;;;;;;19.17;12.20;;;;;;;6.40;nan;100014.78;5934737;24;20239;-90
2022/12/01 12:13:35;;;;;;;16.63;10.43;;;;;;;6.40;nan;100000.88;5955959;24;20363;-90
2022/12/01 12:16:03;;;;;;;16.02;10.05;;;;;;;6.43;nan;100009.44;5954675;23;20422;-88
2022/12/01 12:18:47;;;;;;;18.35;13.38;;;;;;;6.41;nan;100006.03;5929514;24;20552;-90
2022/12/01 12:21:16;;;;;;;21.55;9.90;;;;;;;6.44;nan;100010.28;5931850;24;20210;-89
2022/12/01 12:23:50;;;;;;;20.45;12.10;;;;;;;6.45;nan;100006.72;5954245;23;20183;-90
2022/12/01 12:26:26;;;;;;;13.23;9.27;;;;;;;6.50;nan;100003.94;5953616;23;20167;-91
2022/12/01 12:29:39;;;;;;;20.92;11.05;;;;;;;6.54;nan;99997.72;5956911;24;20173;-90
2022/12/01 12:32:45;;;;;;;14.32;9.77;;;;;;;6.53;nan;100001.22;5952884;23;20179;-90
2022/12/01 12:35:49;;;;;;;20.40;12.48;;;;;;;6.49;nan;100002.25;5955723;24;20514;-90
2022/12/01 12:38:46;;;;;;;19.88;11.27;;;;;;;6.48;nan;100004.03;5900920;23;20194;-89
2022/12/01 12:41:31;;;;;;;18.75;10.45;;;;;;;6.50;nan;99998.72;5951087;23;20187;-88
2022/12/01 12:43:59;;;;;;;20.08;11.10;;;;;;;6.50;nan;100006.56;5951372;24;20662;-90
2022/12/01 12:46:48;;;;;;;18.25;11.55;;;;;;;6.49;nan;99997.03;5950526;24;20256;-91
2022/12/01 12:49:54;;;;;;;18.38;11.02;;;;;;;6.42;nan;100002.50;5951798;24;20502;-89
2022/12/01 12:52:28;;;;;;;20.50;11.50;;;;;;;6.36;nan;99994.91;5952727;24;20213;-90
2022/12/01 12:55:01;;;;;;;16.50;11.63;;;;;;;6.34;nan;100001.94;5959374;24;20697;-90
2022/12/01 12:57:37;;;;;;;16.73;9.75;;;;;;;6.33;nan;99997.66;5960358;24;20179;-89
2022/12/01 13:00:12;;;;;;;18.73;10.85;;;;;;;6.33;nan;99995.03;5959233;24;20198;-89
2022/12/01 13:02:47;;;;;;;20.38;11.50;;;;;;;6.33;nan;99989.81;5960258;24;20234;-89
2022/12/01 13:05:18;;;;;;;16.38;10.07;;;;;;;6.34;nan;99988.91;5965054;24;20167;-90
2022/12/01 13:08:22;;;;;;;15.93;10.30;;;;;;;6.37;nan;99985.31;5963851;23;20202;-90
2022/12/01 13:11:05;;;;;;;18.13;10.52;;;;;;;6.37;nan;99982.72;5936754;24;20190;-90
2022/12/01 13:14:10;;;;;;;19.05;10.18;;;;;;;6.38;nan;99989.66;5950121;24;20254;-89
2022/12/01 13:16:44;;;;;;;16.23;9.65;;;;;;;6.37;nan;99983.59;5923933;24;20172;-89
2022/12/01 13:19:22;;;;;;;15.55;9.45;;;;;;;6.37;nan;99983.59;5924861;24;20697;-89
2022/12/01 13:21:50;;;;;;;17.17;10.73;;;;;;;6.38;nan;99979.22;5922451;24;20212;-89
2022/12/01 13:24:22;;;;;;;18.75;10.65;;;;;;;6.35;nan;99985.41;5912083;24;20187;-90
2022/12/01 13:27:12;;;;;;;16.08;11.75;;;;;;;6.32;nan;99980.31;5923232;24;20210;-89
2022/12/01 13:29:53;;;;;;;21.15;9.15;;;;;;;6.28;nan;99980.50;5924423;24;20203;-90
2022/12/01 13:32:42;;;;;;;23.60;11.13;;;;;;;6.27;nan;99982.25;5924010;24;20172;-90
2022/12/01 13:35:34;;;;;;;17.95;10.05;;;;;;;6.25;nan;99983.22;5923969;24;20735;-89
2022/12/01 13:38:21;;;;;;;20.20;11.55;;;;;;;6.23;nan;99979.81;5920258;24;20235;-88
2022/12/01 13:41:10;;;;;;;15.50;9.90;;;;;;;6.20;nan;99986.00;5923726;24;20179;-88
2022/12/01 13:43:52;;;;;;;18.02;10.35;;;;;;;6.19;nan;99985.16;5916649;24;20593;-89
2022/12/01 13:46:41;;;;;;;16.63;10.35;;;;;;;6.16;nan;99977.47;5923451;24;20262;-88
2022/12/01 13:49:43;;;;;;;17.77;11.05;;;;;;;6.12;nan;99982.84;5899622;24;20180;-88
2022/12/01 13:52:27;;;;;;;13.95;8.88;;;;;;;6.11;nan;99986.38;5923970;24;20635;-88
2022/12/01 13:55:02;;;;;;;17.83;10.45;;;;;;;6.11;nan;99988.97;5921758;24;20286;-89
2022/12/01 13:57:30;;;;;;;21.80;11.15;;;;;;;6.09;nan;99978.59;5923290;24;20195;-88
2022/12/01 14:00:09;;;;;;;;;;;;;;;;;;;;;
2022/12/01 14:02:37;;;;;;;24.90;11.80;;;;;;;6.05;nan;99981.38;5920147;24;20206;-89
2022/12/01 14:05:21;;;;;;;17.80;9.37;;;;;;;6.00;nan;99981.56;5923439;24;20176;-88
2022/12/01 14:07:49;;;;;;;18.98;11.07;;;;;;;5.97;nan;99987.75;5923373;24;20359;-88
2022/12/01 14:10:31;;;;;;;16.95;10.93;;;;;;;5.97;nan;99992.97;5911952;24;20711;-89
2022/12/01 14:13:04;;;;;;;16.08;8.98;;;;;;;5.97;nan;99989.53;5924339;24;20211;-89
2022/12/01 14:15:40;;;;;;;16.77;10.52;;;;;;;5.95;nan;99986.97;5943356;23;20219;-88
2022/12/01 14:18:21;;;;;;;28.63;16.58;;;;;;;5.96;nan;99983.44;5927122;24;20190;-88
2022/12/01 14:20:50;;;;;;;20.25;9.35;;;;;;;5.98;nan;99986.84;5952800;23;20857;-89
2022/12/01 14:23:32;;;;;;;17.98;12.45;;;;;;;6.01;nan;99980.66;5952504;24;20950;-88
2022/12/01 14:26:27;;;;;;;15.38;10.48;;;;;;;6.00;nan;99973.75;5951101;24;20179;-88
2022/12/01 14:28:58;;;;;;;21.55;12.00;;;;;;;5.98;nan;99981.63;5950981;24;20175;-88
2022/12/01 14:31:33;;;;;;;25.58;12.35;;;;;;;5.97;nan;99984.31;5950828;24;20615;-89
2022/12/01 14:34:13;;;;;;;21.17;13.15;;;;;;;5.97;nan;99989.53;5952375;24;20447;-88
2022/12/01 14:36:51;;;;;;;19.00;11.32;;;;;;;5.98;nan;99983.38;5951756;24;20797;-88
2022/12/01 14:39:25;;;;;;;17.27;12.00;;;;;;;5.96;nan;99982.59;5940693;24;20788;-88
2022/12/01 14:41:56;;;;;;;22.92;12.13;;;;;;;5.92;nan;99976.63;5951012;24;20175;-89
2022/12/01 14:44:52;;;;;;;23.38;12.20;;;;;;;5.90;nan;99988.84;5951962;24;20175;-89
2022/12/01 14:47:28;;;;;;;21.73;13.35;;;;;;;5.84;nan;99978.69;5939472;24;20181;-89
2022/12/01 14:50:08;;;;;;;23.77;11.18;;;;;;;5.82;nan;99984.84;5952003;24;20179;-88
2022/12/01 14:52:42;;;;;;;19.95;10.50;;;;;;;5.80;nan;99992.72;5951035;24;20167;-90
2022/12/01 14:55:24;;;;;;;20.88;10.98;;;;;;;5.77;nan;99990.22;5950854;24;20625;-90
2022/12/01 14:57:58;;;;;;;22.08;11.25;;;;;;;5.75;nan;99989.44;5949882;24;20634;-88
2022/12/01 15:00:29;;;;;;;23.15;11.82;;;;;;;5.75;nan;99990.31;5952995;24;20221;-88
2022/12/01 15:03:08;;;;;;;18.80;11.20;;;;;;;5.75;nan;99992.03;5951356;24;20167;-88
2022/12/01 15:05:39;;;;;;;20.88;12.07;;;;;;;5.73;nan;99997.31;5953607;24;20230;-91
2022/12/01 15:08:23;;;;;;;18.75;11.07;;;;;;;5.72;nan;99992.16;5953393;24;20178;-93
2022/12/01 15:11:01;;;;;;;16.88;10.20;;;;;;;5.72;nan;99997.38;5954117;24;20171;-91
2022/12/01 15:13:51;;;;;;;18.15;10.65;;;;;;;5.72;nan;99994.75;5954045;24;20907;-90
2022/12/01 15:16:20;;;;;;;18.42;12.00;;;;;;;5.71;nan;99988.72;5926549;24;20640;-90
2022/12/01 15:18:49;;;;;;;19.17;10.93;;;;;;;5.72;nan;99989.56;5924440;24;20494;-90
2022/12/01 15:21:34;;;;;;;15.63;10.82;;;;;;;5.71;nan;99998.28;5925421;24;20659;-91
2022/12/01 15:24:24;;;;;;;19.88;10.68;;;;;;;5.71;nan;99993.06;5925009;24;20465;-89
2022/12/01 15:26:56;;;;;;;17.63;10.98;;;;;;;5.71;nan;100001.75;5926692;24;20176;-90
2022/12/01 15:29:45;;;;;;;20.08;10.63;;;;;;;5.66;nan;100003.66;5925980;24;20194;-90
2022/12/01 15:32:14;;;;;;;24.65;12.68;;;;;;;5.64;nan;99999.41;5926795;24;20168;-89
2022/12/01 15:34:48;;;;;;;18.92;12.52;;;;;;;5.60;nan;100000.44;5926561;24;20211;-91
2022/12/01 15:37:20;;;;;;;18.88;11.93;;;;;;;5.58;nan;99997.88;5927705;24;20434;-92
2022/12/01 15:40:04;;;;;;;18.00;11.40;;;;;;;5.58;nan;99999.66;5925698;24;20176;-90
2022/12/01 15:42:37;;;;;;;18.95;11.68;;;;;;;5.58;nan;100002.25;5926320;24;20255;-91
2022/12/01 15:45:28;;;;;;;25.10;11.07;;;;;;;5.59;nan;100006.56;5900667;24;20267;-91
2022/12/01 15:47:58;;;;;;;19.58;10.80;;;;;;;5.61;nan;100008.19;5926233;24;20180;-92
2022/12/01 15:50:43;;;;;;;20.23;12.13;;;;;;;5.62;nan;100009.91;5925878;24;20187;-91
2022/12/01 15:53:32;;;;;;;18.92;11.10;;;;;;;5.62;nan;100003.84;5893539;24;20210;-91
2022/12/01 15:56:08;;;;;;;17.40;9.82;;;;;;;5.59;nan;100003.94;5902988;24;20199;-92
2022/12/01 15:58:48;;;;;;;19.75;12.93;;;;;;;5.58;nan;100002.25;5926880;24;20168;-91
2022/12/01 16:01:17;;;;;;;20.08;12.45;;;;;;;5.58;nan;100003.09;5926424;24;20172;-91
2022/12/01 16:04:02;;;;;;;22.05;13.13;;;;;;;5.60;nan;100000.44;5928488;24;20745;-90
2022/12/01 16:06:33;;;;;;;20.50;11.52;;;;;;;5.62;nan;100006.47;5915854;24;20184;-90
2022/12/01 16:09:03;;;;;;;17.10;12.20;;;;;;;5.64;nan;99994.19;5935920;24;20184;-92
2022/12/01 16:11:32;;;;;;;18.83;10.25;;;;;;;5.64;nan;99997.66;5940142;24;20164;-90
2022/12/01 16:14:29;;;;;;;26.10;12.05;;;;;;;5.67;nan;100001.91;5915228;23;20256;-92
2022/12/01 16:17:17;;;;;;;;;;;;;;;;;;;;;
2022/12/01 16:19:49;;;;;;;19.45;10.85;;;;;;;5.65;nan;99995.91;5926961;24;20475;-92
2022/12/01 16:22:23;;;;;;;21.10;11.90;;;;;;;5.65;nan;99990.72;5950939;24;20167;-92
2022/12/01 16:24:56;;;;;;;22.83;11.77;;;;;;;5.65;nan;99993.31;5952546;23;20175;-94
2022/12/01 16:27:30;;;;;;;20.13;11.32;;;;;;;5.64;nan;99991.59;5953184;23;20183;-93
2022/12/01 16:30:25;;;;;;;20.38;10.45;;;;;;;5.64;nan;100000.25;5953580;24;20175;-94
2022/12/01 16:33:06;;;;;;;20.80;11.57;;;;;;;5.65;nan;100008.94;5950537;23;20183;-93
2022/12/01 16:36:00;;;;;;;20.83;11.20;;;;;;;5.61;nan;100005.59;5953054;24;20199;-93
2022/12/01 16:38:48;;;;;;;;;;;;;;;;;;;;;
2022/12/01 16:41:45;;;;;;;19.00;11.02;;;;;;;5.59;nan;100001.34;5955458;24;20193;-92
2022/12/01 16:44:29;;;;;;;17.08;10.18;;;;;;;5.60;nan;99997.84;5954753;24;20190;-92
2022/12/01 16:46:57;;;;;;;16.88;11.63;;;;;;;5.59;nan;99998.72;5955596;24;20713;-92
2022/12/01 16:49:39;;;;;;;;;;;;;;;;;;;;;
2022/12/01 16:52:26;;;;;;;17.55;12.40;;;;;;;5.57;nan;100005.78;5956770;24;20171;-93
2022/12/01 16:55:35;;;;;;;17.00;9.73;;;;;;;5.52;nan;100001.56;5930988;24;20183;-93
2022/12/01 16:58:32;;;;;;;17.42;11.98;;;;;;;5.50;nan;100003.38;5905570;24;20191;-94
2022/12/01 17:01:39;;;;;;;15.32;11.18;;;;;;;5.49;nan;99998.25;5944429;24;20179;-93
2022/12/01 17:09:10;;;;;;;15.85;11.30;;;;;;;5.44;nan;100003.59;5892414;24;20906;-93
2022/12/01 17:18:48;;;;;;;21.75;10.82;;;;;;;5.43;nan;99999.31;5872293;24;20193;-91
2022/12/01 17:22:15;;;;;;;20.42;11.63;;;;;;;5.45;nan;100002.69;5874015;24;20677;-91
2022/12/01 17:25:28;;;;;;;16.85;11.80;;;;;;;5.46;nan;100001.81;5923771;24;20225;-92
2022/12/01 17:28:16;;;;;;;;;;;;;;;;;;;;;
2022/12/01 17:31:07;;;;;;;18.85;11.85;;;;;;;5.48;nan;99996.53;5929052;24;20256;-92
2022/12/01 17:33:59;;;;;;;;;;;;;;;;;;;;;
2022/12/01 17:41:41;;;;;;;;;;;;;;;;;;;;;
2022/12/01 17:44:25;;;;;;;21.33;11.55;;;;;;;5.43;nan;100009.72;5874512;24;20180;-92
2022/12/01 17:47:53;;;;;;;;;;;;;;;;;;;;;
2022/12/01 17:50:44;;;;;;;;;;;;;;;;;;;;;
2022/12/01 17:54:33;;;;;;;;;;;;;;;;;;;;;
2022/12/01 17:57:28;;;;;;;;;;;;;;;;;;;;;
2022/12/01 18:00:09;;;;;;;20.55;11.88;;;;;;;5.46;nan;100017.44;5927766;24;20187;-92
2022/12/01 18:03:07;;;;;;;;;;;;;;;;;;;;;
2022/12/01 18:05:46;;;;;;;19.95;14.05;;;;;;;5.41;nan;100008.94;5948704;24;20195;-91
2022/12/01 18:08:21;;;;;;;27.25;15.68;;;;;;;5.37;nan;100015.13;5957754;24;20595;-94
2022/12/01 18:11:23;;;;;;;;;;;;;;;;;;;;;
2022/12/01 18:13:53;;;;;;;23.67;14.15;;;;;;;5.30;nan;100014.53;5950869;24;20207;-93
2022/12/01 18:16:30;;;;;;;15.48;10.88;;;;;;;5.28;nan;100013.72;5954269;24;20646;-94
2022/12/01 18:19:54;;;;;;;;;;;;;;;;;;;;;
2022/12/01 18:22:22;;;;;;;25.10;14.10;;;;;;;5.32;nan;100011.88;5944741;24;20189;-93
2022/12/01 18:24:57;;;;;;;18.15;11.70;;;;;;;5.35;nan;100016.97;5955918;24;20274;-93
2022/12/01 18:28:02;;;;;;;28.45;13.75;;;;;;;5.32;nan;100015.31;5955409;24;20197;-93
2022/12/01 18:30:41;;;;;;;23.83;14.23;;;;;;;5.32;nan;100006.66;5960904;24;20194;-93
2022/12/01 18:33:21;;;;;;;;;;;;;;;;;;;;;
2022/12/01 18:35:52;;;;;;;21.60;11.45;;;;;;;5.30;nan;100011.06;5953819;24;20603;-93
2022/12/01 18:38:26;;;;;;;18.80;11.60;;;;;;;5.29;nan;100009.34;5926358;24;20596;-92
2022/12/01 18:41:18;;;;;;;18.15;11.23;;;;;;;5.28;nan;100018.09;5928168;24;20214;-93
2022/12/01 18:44:09;;;;;;;21.23;11.90;;;;;;;5.27;nan;100013.78;5928787;24;20188;-93
